Time;durP1;ratioP1;P1;durP2;ratioP2;P2;SDS_P1;SDS_P2;PMS_P1;PMS_P2;Temp;Humidity;BMP_temperature;BMP_pressure;BME280_temperature;BME280_humidity;BME280_pressure;Samples;Min_cycle;Max_cycle;Signal;HPM_P1;HPM_P2
2023/06/13 00:01:17;;;;;;;13.68;12.27;;;;;;;-144.30;100.00;85153.91;5110682;28;20195;-60
2023/06/13 00:03:47;;;;;;;14.30;12.90;;;;;;;-144.30;100.00;85185.72;5110750;28;20613;-62
2023/06/13 00:06:15;;;;;;;13.50;12.00;;;;;;;-144.30;100.00;85177.75;5111006;28;20670;-61
2023/06/13 00:08:43;;;;;;;14.00;12.88;;;;;;;-144.30;100.00;85187.69;5110837;28;20566;-60
2023/06/13 00:11:10;;;;;;;14.48;13.15;;;;;;;-144.30;100.00;85203.59;5110727;28;20296;-61
2023/06/13 00:13:39;;;;;;;14.63;13.32;;;;;;;-144.30;100.00;85205.59;5110568;28;20255;-60
2023/06/13 00:16:06;;;;;;;13.57;12.38;;;;;;;-144.30;100.00;85215.53;5111044;28;20213;-61
2023/06/13 00:18:37;;;;;;;14.45;12.98;;;;;;;-144.30;100.00;85173.78;5110637;28;20194;-60
2023/06/13 00:21:06;;;;;;;15.73;14.05;;;;;;;-144.30;100.00;85173.78;5110591;28;20286;-60
2023/06/13 00:23:33;;;;;;;13.23;12.13;;;;;;;-144.30;100.00;85191.69;5110687;28;20205;-60
2023/06/13 00:26:00;;;;;;;14.70;13.25;;;;;;;-144.30;100.00;85171.81;5110437;28;20197;-61
2023/06/13 00:28:27;;;;;;;15.13;13.73;;;;;;;-144.30;100.00;85209.56;5110126;28;20205;-60
2023/06/13 00:30:54;;;;;;;13.73;12.60;;;;;;;-144.30;100.00;85193.66;5110649;28;20198;-61
2023/06/13 00:33:21;;;;;;;14.60;13.32;;;;;;;-144.30;100.00;85201.63;5110077;28;20234;-62
2023/06/13 00:35:49;;;;;;;14.48;13.25;;;;;;;-144.30;100.00;85187.69;5110066;28;20665;-61
2023/06/13 00:38:20;;;;;;;15.55;13.77;;;;;;;-144.30;100.00;85151.94;5110257;28;20563;-61
2023/06/13 00:40:48;;;;;;;14.20;12.93;;;;;;;-144.30;100.00;85163.84;5110165;28;20589;-61
2023/06/13 00:43:17;;;;;;;15.07;13.18;;;;;;;-144.30;100.00;85151.94;5110372;28;20210;-61
2023/06/13 00:45:44;;;;;;;14.80;13.48;;;;;;;-144.30;100.00;85138.00;5110005;28;20703;-61
2023/06/13 00:48:11;;;;;;;14.05;12.63;;;;;;;-144.30;100.00;85149.94;5109601;28;20194;-61
2023/06/13 00:50:40;;;;;;;14.27;13.18;;;;;;;-144.30;100.00;85171.81;5110212;28;20576;-61
2023/06/13 00:53:16;;;;;;;13.80;12.63;;;;;;;-144.30;100.00;85126.09;5109843;28;20219;-61
2023/06/13 00:55:44;;;;;;;14.55;13.10;;;;;;;-144.30;100.00;85187.69;5109362;28;20198;-61
2023/06/13 00:58:12;;;;;;;14.80;13.60;;;;;;;-144.30;100.00;85151.94;5109629;28;20716;-61
2023/06/13 01:00:40;;;;;;;14.88;13.52;;;;;;;-144.30;100.00;85177.75;5109408;28;20194;-62
2023/06/13 01:03:09;;;;;;;17.65;13.68;;;;;;;-144.30;100.00;85068.44;5109818;28;20194;-61
2023/06/13 01:05:36;;;;;;;14.90;13.30;;;;;;;-144.30;100.00;85177.75;5109919;28;20286;-61
2023/06/13 01:08:07;;;;;;;16.05;14.23;;;;;;;-144.30;100.00;85098.25;5109457;28;20223;-61
2023/06/13 01:10:36;;;;;;;16.70;15.10;;;;;;;-144.30;100.00;85042.59;5109842;28;20685;-61
2023/06/13 01:13:10;;;;;;;20.33;16.15;;;;;;;-144.30;100.00;85169.81;5109339;28;20205;-61
2023/06/13 01:15:44;;;;;;;20.83;18.27;;;;;;;-144.30;100.00;85163.84;5109755;28;20202;-60
2023/06/13 01:18:14;;;;;;;20.25;17.40;;;;;;;-144.30;100.00;85124.09;5109555;28;20199;-57
2023/06/13 01:20:44;;;;;;;18.92;17.02;;;;;;;-144.30;100.00;85189.69;5109382;28;20199;-54
2023/06/13 01:23:25;;;;;;;22.35;19.23;;;;;;;-144.30;100.00;85177.75;5109636;28;20635;-56
2023/06/13 01:26:03;;;;;;;19.63;17.40;;;;;;;-144.30;100.00;85165.84;5109316;28;20209;-55
2023/06/13 01:28:34;;;;;;;17.67;15.98;;;;;;;-144.30;100.00;85149.94;5109449;28;20213;-57
2023/06/13 01:31:02;;;;;;;19.55;16.45;;;;;;;-144.30;100.00;85171.81;5109352;28;20199;-55
2023/06/13 01:33:31;;;;;;;19.00;15.98;;;;;;;-144.30;100.00;85155.91;5109267;28;20640;-56
2023/06/13 01:35:58;;;;;;;19.13;16.10;;;;;;;-144.30;100.00;85175.78;5109188;28;20198;-62
2023/06/13 01:38:25;;;;;;;19.27;15.98;;;;;;;-144.30;100.00;85225.47;5109318;28;20202;-62
2023/06/13 01:40:52;;;;;;;18.58;16.60;;;;;;;-144.30;100.00;85201.63;5109525;28;20198;-61
2023/06/13 01:43:19;;;;;;;17.65;15.88;;;;;;;-144.30;100.00;85221.50;5109440;28;20225;-61
2023/06/13 01:45:49;;;;;;;16.98;15.23;;;;;;;-144.30;100.00;85201.63;5109227;28;20199;-61
2023/06/13 01:48:23;;;;;;;19.08;16.90;;;;;;;-144.30;100.00;85251.31;5109098;28;20191;-61
2023/06/13 01:50:58;;;;;;;19.80;17.08;;;;;;;-144.30;100.00;85231.44;5109034;28;20201;-61
2023/06/13 01:53:30;;;;;;;18.80;17.02;;;;;;;-144.30;100.00;85213.53;5109321;28;20561;-61
2023/06/13 01:56:01;;;;;;;22.05;16.45;;;;;;;-144.30;100.00;85209.56;5109056;28;20195;-61
2023/06/13 01:58:35;;;;;;;18.55;16.65;;;;;;;-144.30;100.00;85243.38;5109421;28;20577;-62
2023/06/13 02:01:05;;;;;;;18.20;16.35;;;;;;;-144.30;100.00;85187.69;5109019;28;20198;-61
2023/06/13 02:03:33;;;;;;;18.65;16.75;;;;;;;-144.30;100.00;85213.53;5109102;28;20191;-61
2023/06/13 02:06:01;;;;;;;18.95;16.77;;;;;;;-144.30;100.00;85243.38;5109109;28;20252;-61
2023/06/13 02:08:28;;;;;;;19.25;16.98;;;;;;;-144.30;100.00;85197.66;5108781;28;20589;-61
2023/06/13 02:10:55;;;;;;;18.10;16.23;;;;;;;-144.30;100.00;85219.50;5109640;28;20233;-62
2023/06/13 02:13:22;;;;;;;17.52;15.63;;;;;;;-144.30;100.00;85201.63;5112673;28;20194;-64
2023/06/13 02:15:50;;;;;;;18.48;16.70;;;;;;;-144.30;100.00;85231.44;5112541;28;20588;-62
2023/06/13 02:18:18;;;;;;;17.60;16.20;;;;;;;-144.30;100.00;85261.25;5112891;28;20714;-62
2023/06/13 02:20:45;;;;;;;18.20;16.30;;;;;;;-144.30;100.00;85269.22;5112530;28;20663;-62
2023/06/13 02:23:12;;;;;;;16.83;15.18;;;;;;;-144.30;100.00;85221.50;5112627;28;20206;-62
2023/06/13 02:25:39;;;;;;;18.23;16.02;;;;;;;-144.30;100.00;85217.53;5112691;28;20629;-62
2023/06/13 02:28:06;;;;;;;16.38;14.60;;;;;;;-144.30;100.00;85229.44;5112320;28;20201;-62
2023/06/13 02:30:33;;;;;;;18.92;16.98;;;;;;;-144.30;100.00;85281.13;5112500;28;20201;-61
2023/06/13 02:33:01;;;;;;;16.65;15.05;;;;;;;-144.30;100.00;85233.44;5111966;28;20682;-62
2023/06/13 02:35:29;;;;;;;17.65;15.82;;;;;;;-144.30;100.00;85257.28;5112402;28;20753;-63
2023/06/13 02:37:56;;;;;;;19.48;15.70;;;;;;;-144.30;100.00;85247.34;5111985;28;20198;-61
2023/06/13 02:40:23;;;;;;;17.58;15.80;;;;;;;-144.30;100.00;85205.59;5112163;28;20678;-61
2023/06/13 02:42:52;;;;;;;16.95;15.18;;;;;;;-144.30;100.00;85259.28;5111908;28;20202;-62
2023/06/13 02:45:19;;;;;;;16.48;14.98;;;;;;;-144.30;100.00;85269.22;5112315;28;20681;-62
2023/06/13 02:47:46;;;;;;;17.42;15.45;;;;;;;-144.30;100.00;85233.44;5112157;28;20290;-62
2023/06/13 02:50:13;;;;;;;15.18;13.23;;;;;;;-144.30;100.00;85287.09;5112036;28;20195;-62
2023/06/13 02:52:41;;;;;;;16.00;14.30;;;;;;;-144.30;100.00;85265.22;5111908;28;20689;-62
2023/06/13 02:55:10;;;;;;;15.15;13.75;;;;;;;-144.30;100.00;85201.63;5111868;28;20251;-55
2023/06/13 02:57:38;;;;;;;14.65;13.27;;;;;;;-144.30;100.00;85253.31;5111990;28;20191;-55
2023/06/13 03:00:08;;;;;;;15.15;13.55;;;;;;;-144.30;100.00;85261.25;5111808;28;20201;-55
2023/06/13 03:02:37;;;;;;;16.83;13.45;;;;;;;-144.30;100.00;85279.16;5111707;28;20239;-55
2023/06/13 03:05:05;;;;;;;15.48;13.45;;;;;;;-144.30;100.00;85249.34;5111337;28;20194;-55
2023/06/13 03:07:32;;;;;;;13.82;12.50;;;;;;;-144.30;100.00;85275.16;5111689;28;20644;-55
2023/06/13 03:10:01;;;;;;;14.68;12.55;;;;;;;-144.30;100.00;85261.25;5111298;28;20690;-55
2023/06/13 03:12:28;;;;;;;13.23;12.13;;;;;;;-144.30;100.00;85281.13;5111470;28;20248;-54
2023/06/13 03:14:55;;;;;;;13.45;12.20;;;;;;;-144.30;100.00;85249.34;5111391;28;20609;-55
2023/06/13 03:17:22;;;;;;;12.48;11.48;;;;;;;-144.30;100.00;85316.91;5111406;28;20194;-57
2023/06/13 03:19:49;;;;;;;16.42;12.82;;;;;;;-144.30;100.00;85277.16;5111339;28;20639;-55
2023/06/13 03:22:17;;;;;;;13.43;12.05;;;;;;;-144.30;100.00;85195.66;5110877;28;20194;-56
2023/06/13 03:24:44;;;;;;;14.98;12.68;;;;;;;-144.30;100.00;85285.09;5110328;28;20234;-55
2023/06/13 03:27:13;;;;;;;13.48;12.15;;;;;;;-144.30;100.00;85138.00;5111506;28;20252;-55
2023/06/13 03:29:40;;;;;;;16.30;13.07;;;;;;;-144.30;100.00;85259.28;5111136;28;20198;-57
2023/06/13 03:32:08;;;;;;;14.02;12.55;;;;;;;-144.30;100.00;85273.19;5111296;28;20190;-57
2023/06/13 03:34:38;;;;;;;14.82;11.90;;;;;;;-144.30;100.00;85710.53;5110970;28;20235;-56
2023/06/13 03:37:06;;;;;;;13.93;12.43;;;;;;;-144.30;100.00;85287.09;5111099;28;20218;-55
2023/06/13 03:39:33;;;;;;;13.45;11.68;;;;;;;-144.30;100.00;85261.25;5110950;28;20199;-56
2023/06/13 03:42:01;;;;;;;12.60;11.30;;;;;;;-144.30;100.00;85265.22;5111243;28;20645;-57
2023/06/13 03:44:29;;;;;;;15.07;11.75;;;;;;;-144.30;100.00;85213.53;5109609;28;20192;-56
2023/06/13 03:46:57;;;;;;;12.73;11.50;;;;;;;-144.30;100.00;85227.47;5108034;28;20590;-57
2023/06/13 03:49:24;;;;;;;14.50;10.90;;;;;;;-144.30;100.00;85269.22;5110785;28;20195;-57
2023/06/13 03:51:51;;;;;;;15.35;10.77;;;;;;;-144.30;100.00;85237.41;5110792;28;20201;-56
2023/06/13 03:54:18;;;;;;;15.00;11.13;;;;;;;-144.30;100.00;85213.53;5107926;28;20215;-56
2023/06/13 03:56:45;;;;;;;12.45;11.18;;;;;;;-144.30;100.00;85271.19;5109214;28;20209;-55
2023/06/13 03:59:12;;;;;;;11.73;10.63;;;;;;;-144.30;100.00;85289.09;5108345;28;20205;-56
2023/06/13 04:01:41;;;;;;;15.15;12.02;;;;;;;-144.30;100.00;85217.53;5109917;28;20199;-56
2023/06/13 04:04:08;;;;;;;14.90;11.13;;;;;;;-144.30;100.00;85219.50;5106071;28;20748;-55
2023/06/13 04:06:37;;;;;;;15.23;11.48;;;;;;;-144.30;100.00;85173.78;5109663;28;20226;-56
2023/06/13 04:09:05;;;;;;;11.93;10.57;;;;;;;-144.30;100.00;85110.19;5107396;28;20753;-56
2023/06/13 04:11:33;;;;;;;11.30;10.40;;;;;;;-144.30;100.00;85145.97;5109416;28;20238;-55
2023/06/13 04:14:00;;;;;;;15.70;11.13;;;;;;;-144.30;100.00;85169.81;5109099;28;20283;-55
2023/06/13 04:16:27;;;;;;;12.40;10.77;;;;;;;-144.30;100.00;85191.69;5109291;28;20222;-63
2023/06/13 04:18:56;;;;;;;11.13;10.18;;;;;;;-144.30;100.00;85068.44;5109401;28;20226;-64
2023/06/13 04:21:24;;;;;;;16.17;10.07;;;;;;;-144.30;100.00;85175.78;5109628;28;20229;-64
2023/06/13 04:23:52;;;;;;;11.23;10.32;;;;;;;-144.30;100.00;85173.78;5109231;28;20719;-62
2023/06/13 04:26:19;;;;;;;12.75;9.85;;;;;;;-144.30;100.00;85136.03;5109410;28;20872;-63
2023/06/13 04:28:47;;;;;;;11.30;10.02;;;;;;;-144.30;100.00;85106.22;5109111;28;20222;-62
2023/06/13 04:31:14;;;;;;;14.68;9.77;;;;;;;-144.30;100.00;85157.88;5109090;28;20218;-62
2023/06/13 04:33:44;;;;;;;12.05;9.63;;;;;;;-144.30;100.00;85098.25;5111283;28;20233;-61
2023/06/13 04:36:13;;;;;;;10.98;9.73;;;;;;;-144.30;99.83;85066.44;5129475;27;20725;-62
2023/06/13 04:38:40;;;;;;;12.35;10.18;;;;;;;-144.30;98.99;84965.06;5129596;27;20189;-61
2023/06/13 04:41:10;;;;;;;13.68;10.32;;;;;;;-144.30;98.38;85086.31;5130412;27;20271;-63
2023/06/13 04:43:36;;;;;;;10.68;9.60;;;;;;;-144.30;97.09;85054.53;5130454;27;20197;-62
2023/06/13 04:46:03;;;;;;;13.13;10.27;;;;;;;-144.30;97.63;85078.38;5130763;27;20190;-62
2023/06/13 04:48:30;;;;;;;10.43;9.32;;;;;;;-144.30;97.09;85038.63;5130281;27;20197;-63
2023/06/13 04:50:58;;;;;;;11.98;10.43;;;;;;;-144.30;95.64;84975.00;5130238;27;20200;-62
2023/06/13 04:53:28;;;;;;;16.67;11.75;;;;;;;-144.30;94.63;85002.84;5130354;27;20591;-63
2023/06/13 04:55:55;;;;;;;11.15;10.05;;;;;;;-144.30;94.79;84965.06;5130053;27;20270;-63
2023/06/13 04:58:23;;;;;;;13.07;9.75;;;;;;;-144.30;94.17;84980.97;5130130;28;20216;-63
2023/06/13 05:00:50;;;;;;;11.27;10.23;;;;;;;-144.30;93.63;84895.50;5129899;27;20606;-62
2023/06/13 05:03:18;;;;;;;14.38;13.00;;;;;;;-144.30;93.54;84935.25;5130237;27;20189;-62
2023/06/13 05:05:44;;;;;;;11.95;10.70;;;;;;;-144.30;93.44;84925.31;5129858;28;20221;-55
2023/06/13 05:08:13;;;;;;;15.15;12.70;;;;;;;-144.30;94.38;84875.63;5130084;28;20201;-56
2023/06/13 05:10:42;;;;;;;11.65;10.02;;;;;;;-144.30;94.52;84891.53;5130050;28;20687;-56
2023/06/13 05:13:09;;;;;;;13.00;9.63;;;;;;;-144.30;94.12;84957.13;5130339;28;20669;-56
2023/06/13 05:15:36;;;;;;;17.98;9.77;;;;;;;-144.30;94.17;84963.09;5130285;27;20244;-56
2023/06/13 05:18:06;;;;;;;15.25;10.10;;;;;;;-144.30;94.00;84935.25;5129942;27;20245;-62
2023/06/13 05:20:33;;;;;;;14.82;10.32;;;;;;;-144.30;94.55;84963.09;5130084;28;20224;-63
2023/06/13 05:23:02;;;;;;;10.25;9.32;;;;;;;-144.30;94.44;84933.28;5130232;28;20197;-63
2023/06/13 05:25:30;;;;;;;12.48;10.02;;;;;;;-144.30;95.18;84955.13;5129743;27;20197;-61
2023/06/13 05:27:58;;;;;;;11.48;9.45;;;;;;;-144.30;95.11;84921.34;5129820;28;20197;-62
2023/06/13 05:30:25;;;;;;;12.68;9.52;;;;;;;-144.30;94.29;84951.16;5129987;27;20198;-62
2023/06/13 05:32:52;;;;;;;14.25;12.70;;;;;;;-144.30;93.52;84961.09;5129465;27;20194;-62
2023/06/13 05:35:19;;;;;;;19.05;14.18;;;;;;;-144.30;93.30;84959.13;5129791;28;20698;-62
2023/06/13 05:37:46;;;;;;;22.67;16.20;;;;;;;-144.30;94.29;84965.06;5129577;27;20292;-61
2023/06/13 05:40:13;;;;;;;21.27;18.45;;;;;;;-144.30;92.99;84951.16;5129685;27;20198;-61
2023/06/13 05:42:40;;;;;;;15.02;10.15;;;;;;;-144.30;93.94;84990.91;5129970;27;20639;-54
2023/06/13 05:45:10;;;;;;;13.70;10.63;;;;;;;-144.30;94.55;84967.06;5130828;27;20584;-56
2023/06/13 05:47:37;;;;;;;16.17;10.63;;;;;;;-144.30;95.18;84990.91;5133716;27;20201;-55
2023/06/13 05:50:05;;;;;;;18.65;13.93;;;;;;;-144.30;94.96;84990.91;5133659;27;20280;-55
2023/06/13 05:52:33;;;;;;;17.15;10.90;;;;;;;-144.30;94.58;84963.09;5134037;27;20258;-55
2023/06/13 05:55:01;;;;;;;13.63;10.00;;;;;;;-144.30;95.08;84951.16;5134070;27;20228;-54
2023/06/13 05:57:39;;;;;;;12.48;10.88;;;;;;;-144.30;94.60;84921.34;5115570;27;20194;-56
2023/06/13 06:00:08;;;;;;;15.15;11.18;;;;;;;-144.30;93.63;84955.13;5113360;28;20191;-65
2023/06/13 06:02:36;;;;;;;13.70;11.50;;;;;;;-144.30;94.06;84917.38;5113468;28;20191;-64
2023/06/13 06:05:04;;;;;;;10.88;9.98;;;;;;;-144.30;94.29;84937.25;5112942;28;20221;-63
2023/06/13 06:07:31;;;;;;;15.38;12.38;;;;;;;-144.30;94.98;84955.13;5113446;28;20195;-64
2023/06/13 06:09:58;;;;;;;16.65;12.02;;;;;;;-144.30;95.02;84982.97;5113326;28;20199;-63
2023/06/13 06:12:25;;;;;;;14.38;10.80;;;;;;;-144.30;94.41;84939.25;5113669;28;20279;-64
2023/06/13 06:14:52;;;;;;;13.20;11.43;;;;;;;-144.30;93.46;84935.25;5113737;28;20214;-64
2023/06/13 06:17:20;;;;;;;13.80;12.40;;;;;;;-144.30;92.29;84877.63;5113187;28;20217;-64
2023/06/13 06:19:48;;;;;;;13.98;12.52;;;;;;;-144.30;91.96;84859.72;5112623;28;20495;-65
2023/06/13 06:22:15;;;;;;;11.85;10.85;;;;;;;-144.30;92.02;84816.00;5113340;28;20573;-64
2023/06/13 06:24:43;;;;;;;12.75;10.98;;;;;;;-144.30;90.84;84766.31;5113194;28;20197;-65
2023/06/13 06:27:11;;;;;;;12.90;11.63;;;;;;;-144.30;91.77;84839.84;5112928;28;20186;-64
2023/06/13 06:29:38;;;;;;;13.32;11.15;;;;;;;-144.30;90.58;84720.59;5112992;28;20195;-65
2023/06/13 06:32:06;;;;;;;12.02;11.02;;;;;;;-144.30;89.24;84567.56;5112720;28;20195;-63
2023/06/13 06:34:33;;;;;;;15.98;10.98;;;;;;;-144.30;87.21;84581.47;5112817;28;20222;-64
2023/06/13 06:37:02;;;;;;;12.70;10.27;;;;;;;-144.30;84.40;84529.81;5112126;28;20221;-64
2023/06/13 06:39:29;;;;;;;16.70;11.55;;;;;;;-144.30;82.57;84509.94;5112910;28;20252;-64
2023/06/13 06:41:56;;;;;;;12.80;11.13;;;;;;;-144.30;83.09;84537.75;5109372;27;20606;-64
2023/06/13 06:44:23;;;;;;;11.93;10.80;;;;;;;-144.30;83.81;84523.84;5111840;28;20777;-62
2023/06/13 06:46:50;;;;;;;11.50;10.70;;;;;;;-144.30;83.57;84541.72;5111310;27;20689;-64
2023/06/13 06:49:17;;;;;;;11.73;10.63;;;;;;;-144.30;84.49;84615.25;5111824;28;20624;-55
2023/06/13 06:51:44;;;;;;;12.32;11.18;;;;;;;-144.30;84.94;84720.59;5112414;28;20239;-55
2023/06/13 06:54:13;;;;;;;11.10;10.23;;;;;;;-144.30;85.54;84611.28;5112174;28;20194;-56
2023/06/13 06:56:40;;;;;;;11.25;10.15;;;;;;;-144.30;86.50;84732.53;5111582;28;20677;-55
2023/06/13 06:59:06;;;;;;;11.30;10.25;;;;;;;-144.30;87.05;84692.78;5108714;28;20589;-56
2023/06/13 07:01:33;;;;;;;12.02;10.85;;;;;;;-144.30;86.39;84649.03;5109135;28;20217;-55
2023/06/13 07:04:02;;;;;;;11.50;10.15;;;;;;;-144.30;85.22;84708.66;5111825;28;20197;-56
2023/06/13 07:06:29;;;;;;;12.90;10.30;;;;;;;-144.30;86.10;84688.81;5111924;28;20293;-55
2023/06/13 07:08:56;;;;;;;13.63;9.80;;;;;;;-144.30;85.81;84688.81;5111586;28;20198;-55
2023/06/13 07:11:24;;;;;;;11.20;8.98;;;;;;;-144.30;85.01;84680.84;5111566;28;20290;-56
2023/06/13 07:13:51;;;;;;;9.95;8.68;;;;;;;-144.30;86.80;84724.56;5111023;28;20190;-56
2023/06/13 07:16:18;;;;;;;10.20;9.15;;;;;;;-144.30;87.02;84690.78;5111209;28;20214;-56
2023/06/13 07:18:49;;;;;;;10.13;9.40;;;;;;;-144.30;87.36;84615.25;5116047;28;20187;-64
2023/06/13 07:21:16;;;;;;;10.13;8.85;;;;;;;-144.30;85.21;84660.97;5108875;28;20607;-64
2023/06/13 07:23:42;;;;;;;10.48;9.38;;;;;;;-144.30;85.09;84605.31;5110680;28;20223;-65
2023/06/13 07:26:09;;;;;;;12.70;9.02;;;;;;;-144.30;83.70;84519.88;5110646;28;20209;-64
2023/06/13 07:28:38;;;;;;;9.43;8.65;;;;;;;-144.30;81.03;84462.22;5111294;28;20275;-63
2023/06/13 07:31:04;;;;;;;8.52;7.72;;;;;;;-144.30;79.41;84428.44;5111782;28;20213;-55
2023/06/13 07:33:31;;;;;;;12.88;7.80;;;;;;;-144.30;78.32;84360.88;5111217;28;20222;-55
2023/06/13 07:35:58;;;;;;;8.13;7.63;;;;;;;-144.30;79.17;84362.84;5110966;28;20217;-55
2023/06/13 07:38:26;;;;;;;8.15;7.38;;;;;;;-144.30;76.21;84227.72;5111053;28;20195;-55
2023/06/13 07:40:52;;;;;;;7.90;7.20;;;;;;;-144.30;74.57;84136.31;5110270;28;20197;-55
2023/06/13 07:43:19;;;;;;;8.10;7.50;;;;;;;-144.30;72.30;83959.44;5110733;28;20202;-63
2023/06/13 07:45:48;;;;;;;11.35;7.00;;;;;;;-144.30;71.88;84029.00;5111202;28;20690;-65
2023/06/13 07:48:15;;;;;;;13.00;7.60;;;;;;;-144.30;69.97;83905.81;5108267;28;20205;-64
2023/06/13 07:50:42;;;;;;;9.50;6.95;;;;;;;-144.30;67.56;83814.41;5111145;28;20635;-56
2023/06/13 07:53:10;;;;;;;8.13;7.20;;;;;;;-144.30;62.15;83685.25;5110970;28;21167;-63
2023/06/13 07:55:37;;;;;;;7.00;6.45;;;;;;;-144.30;60.12;83476.63;5108118;28;20215;-55
2023/06/13 07:58:04;;;;;;;7.55;6.88;;;;;;;-144.30;57.56;83524.31;5110444;28;20210;-65
2023/06/13 08:00:31;;;;;;;7.10;6.70;;;;;;;-144.30;58.36;83528.28;5111028;28;20198;-55
2023/06/13 08:02:59;;;;;;;6.63;6.22;;;;;;;-144.30;58.22;83496.50;5110152;28;20202;-55
2023/06/13 08:05:27;;;;;;;7.13;6.47;;;;;;;-144.30;56.85;83500.47;5110837;28;20187;-64
2023/06/13 08:07:54;;;;;;;7.32;6.65;;;;;;;-144.30;55.21;83468.66;5110526;28;20203;-55
2023/06/13 08:10:21;;;;;;;6.60;6.20;;;;;;;-144.30;56.76;83504.44;5111048;28;20195;-55
2023/06/13 08:12:48;;;;;;;8.35;6.35;;;;;;;-144.30;55.17;83166.69;5111213;28;20697;-55
2023/06/13 08:15:15;;;;;;;6.38;5.90;;;;;;;-144.30;56.09;83452.78;5099282;27;20221;-54
2023/06/13 08:17:42;;;;;;;8.23;7.22;;;;;;;-144.30;54.69;83405.09;5090447;28;20219;-55
2023/06/13 08:20:11;;;;;;;7.38;6.80;;;;;;;-144.30;52.50;83305.75;5089980;28;20710;-55
2023/06/13 08:22:39;;;;;;;6.90;6.22;;;;;;;-144.30;54.23;83723.00;5096379;28;20226;-55
2023/06/13 08:25:08;;;;;;;5.97;5.68;;;;;;;-144.30;54.21;83415.03;5110583;28;20214;-55
2023/06/13 08:27:36;;;;;;;6.88;6.45;;;;;;;-144.30;54.30;83476.63;5111000;28;20259;-55
2023/06/13 08:30:04;;;;;;;7.22;6.60;;;;;;;-144.30;54.45;83484.56;5110665;28;20226;-64
2023/06/13 08:32:33;;;;;;;7.60;7.03;;;;;;;-144.30;55.34;83573.97;5110844;28;20209;-63
2023/06/13 08:35:01;;;;;;;9.70;7.35;;;;;;;-144.30;57.44;83691.19;5110031;28;20230;-63
2023/06/13 08:37:31;;;;;;;11.18;7.70;;;;;;;-144.30;57.43;83742.88;5111013;28;20229;-63
2023/06/13 08:39:58;;;;;;;8.38;7.65;;;;;;;-144.30;57.55;83780.63;5111155;28;20199;-55
2023/06/13 08:42:26;;;;;;;8.02;7.28;;;;;;;-144.30;58.37;83762.72;5110890;28;20583;-55
2023/06/13 08:44:53;;;;;;;7.15;6.43;;;;;;;-144.30;58.04;83752.78;5110514;28;20299;-55
2023/06/13 08:47:20;;;;;;;8.45;7.55;;;;;;;-144.30;59.33;83876.00;5110487;28;20197;-55
2023/06/13 08:49:49;;;;;;;7.68;7.13;;;;;;;-144.30;60.38;83820.34;5110306;28;20200;-62
2023/06/13 08:52:18;;;;;;;7.47;6.70;;;;;;;-144.30;59.97;83885.94;5110435;28;20198;-63
2023/06/13 08:54:52;;;;;;;6.90;6.50;;;;;;;-144.30;60.10;83862.09;5110333;28;20238;-64
2023/06/13 08:57:22;;;;;;;7.57;6.88;;;;;;;-144.30;60.09;83846.19;5110182;28;20267;-55
2023/06/13 08:59:51;;;;;;;6.72;6.32;;;;;;;-144.30;58.74;83828.31;5110261;28;20201;-56
2023/06/13 09:02:20;;;;;;;7.20;6.60;;;;;;;-144.30;59.11;83868.03;5110223;28;20198;-55
2023/06/13 09:04:48;;;;;;;7.85;7.15;;;;;;;-144.30;58.64;83907.78;5110413;28;20198;-55
2023/06/13 09:07:16;;;;;;;7.05;6.35;;;;;;;-144.30;58.64;83854.13;5110291;28;20206;-62
2023/06/13 09:09:43;;;;;;;9.40;5.93;;;;;;;-144.30;57.78;83794.53;5110349;28;20552;-64
2023/06/13 09:12:13;;;;;;;6.55;6.15;;;;;;;-144.30;56.92;83794.53;5110272;28;20666;-58
2023/06/13 09:14:41;;;;;;;7.45;6.68;;;;;;;-144.30;58.01;83842.22;5110288;28;20198;-63
2023/06/13 09:17:08;;;;;;;8.98;6.60;;;;;;;-144.30;59.01;83897.84;5110316;28;20214;-55
2023/06/13 09:19:35;;;;;;;7.03;6.47;;;;;;;-144.30;58.64;83806.44;5110578;28;20198;-55
2023/06/13 09:22:02;;;;;;;6.78;6.25;;;;;;;-144.30;56.80;83687.22;5114120;28;20205;-56
2023/06/13 09:24:31;;;;;;;9.30;6.55;;;;;;;-144.30;55.76;83615.69;5114216;28;20204;-55
2023/06/13 09:26:58;;;;;;;6.20;5.60;;;;;;;-144.30;54.13;83570.00;5114074;28;20190;-55
2023/06/13 09:29:33;;;;;;;7.38;5.63;;;;;;;-144.30;54.28;83512.38;5114179;28;21094;-55
2023/06/13 09:32:00;;;;;;;6.78;6.28;;;;;;;-144.30;54.25;83486.56;5114153;28;20198;-56
2023/06/13 09:34:28;;;;;;;7.20;5.97;;;;;;;-144.30;54.21;83534.22;5113999;28;20229;-55
2023/06/13 09:37:02;;;;;;;9.63;6.03;;;;;;;-144.30;53.82;83520.31;5113982;28;20272;-55
2023/06/13 09:39:31;;;;;;;6.88;6.20;;;;;;;-144.30;53.43;83486.56;5113033;28;20254;-55
2023/06/13 09:42:01;;;;;;;7.70;5.32;;;;;;;-144.30;53.41;83623.66;5113496;28;20194;-55
2023/06/13 09:44:33;;;;;;;6.55;5.95;;;;;;;-144.30;55.32;83393.16;5113912;28;20297;-55
2023/06/13 09:47:01;;;;;;;5.97;5.55;;;;;;;-144.30;54.17;83679.28;5113758;28;20201;-63
2023/06/13 09:49:30;;;;;;;5.53;5.22;;;;;;;-144.30;54.47;83762.72;5113809;28;20562;-63
2023/06/13 09:52:00;;;;;;;6.47;5.75;;;;;;;-144.30;53.72;83699.16;5113777;28;20643;-64
2023/06/13 09:54:31;;;;;;;9.02;5.63;;;;;;;-144.30;53.57;83641.53;5113755;28;20203;-64
2023/06/13 09:56:58;;;;;;;5.82;5.53;;;;;;;-144.30;53.25;83623.66;5113892;28;20222;-55
2023/06/13 09:59:25;;;;;;;5.80;5.40;;;;;;;-144.30;53.59;83689.22;5113507;28;20708;-55
2023/06/13 10:01:53;;;;;;;9.68;6.28;;;;;;;-144.30;54.55;83726.97;5110767;28;20198;-55
2023/06/13 10:04:21;;;;;;;5.72;5.20;;;;;;;-144.30;54.48;83687.22;5108810;28;20194;-56
2023/06/13 10:06:48;;;;;;;5.75;5.45;;;;;;;-144.30;54.09;83649.47;5112886;28;20179;-56
2023/06/13 10:09:15;;;;;;;6.22;5.65;;;;;;;-144.30;52.95;83591.84;5112879;28;20194;-56
2023/06/13 10:11:48;;;;;;;6.22;5.72;;;;;;;-144.30;52.66;83657.41;5113082;27;20197;-64
2023/06/13 10:14:18;;;;;;;6.00;5.47;;;;;;;-144.30;53.06;83651.47;5112983;28;20659;-64
2023/06/13 10:16:47;;;;;;;5.90;5.50;;;;;;;-144.30;53.55;83691.19;5110037;28;20257;-57
2023/06/13 10:19:19;;;;;;;5.70;5.40;;;;;;;-144.30;52.06;83655.44;5112889;28;20229;-55
2023/06/13 10:21:47;;;;;;;6.57;5.50;;;;;;;-144.30;52.48;83667.34;5110600;28;20197;-56
2023/06/13 10:24:15;;;;;;;5.30;5.00;;;;;;;-144.30;52.92;83659.41;5112788;28;20201;-56
2023/06/13 10:26:44;;;;;;;5.90;5.50;;;;;;;-144.30;53.44;83671.34;5112618;28;20237;-56
2023/06/13 10:29:51;;;;;;;6.35;5.65;;;;;;;-144.30;53.00;83649.47;5112050;28;20195;-64
2023/06/13 10:32:47;;;;;;;7.50;5.88;;;;;;;-144.30;52.54;83699.16;5079401;28;20200;-56
2023/06/13 10:35:36;;;;;;;7.78;5.60;;;;;;;-144.30;51.44;83687.22;5083217;28;20191;-56
2023/06/13 10:38:59;;;;;;;5.57;5.28;;;;;;;-144.30;52.62;83810.41;5112188;28;20586;-54
2023/06/13 10:41:43;;;;;;;6.90;6.28;;;;;;;-144.30;53.67;83824.31;5027868;28;20274;-64
2023/06/13 10:44:16;;;;;;;7.22;5.90;;;;;;;-144.30;53.38;83732.94;5109485;28;20251;-64
2023/06/13 10:46:44;;;;;;;9.07;5.97;;;;;;;-144.30;52.56;83719.03;5111428;28;20187;-65
2023/06/13 10:49:15;;;;;;;6.82;6.18;;;;;;;-144.30;52.96;83804.47;5109982;28;20194;-64
2023/06/13 10:51:45;;;;;;;9.10;6.40;;;;;;;-144.30;52.56;83796.50;5111626;28;20195;-64
2023/06/13 10:54:13;;;;;;;7.85;6.93;;;;;;;-144.30;52.37;83744.84;5109842;28;20191;-65
2023/06/13 10:56:43;;;;;;;7.90;6.00;;;;;;;-144.30;52.45;83770.69;5111466;28;20217;-55
2023/06/13 10:59:12;;;;;;;10.07;5.70;;;;;;;-144.30;51.77;83764.72;5106443;28;20214;-55
2023/06/13 11:01:40;;;;;;;6.20;5.32;;;;;;;-144.30;52.16;83822.34;5110768;28;20217;-55
2023/06/13 11:04:12;;;;;;;8.95;5.70;;;;;;;-144.30;52.39;83814.41;5109036;28;20252;-55
2023/06/13 11:06:40;;;;;;;7.47;5.60;;;;;;;-144.30;52.23;83818.38;5111150;28;20203;-55
2023/06/13 11:09:19;;;;;;;7.22;5.65;;;;;;;-144.30;52.57;83786.56;5108594;28;20667;-56
2023/06/13 11:11:48;;;;;;;5.68;5.28;;;;;;;-144.30;51.52;83846.19;5109314;28;20197;-55